Time;durP1;ratioP1;P1;durP2;ratioP2;P2;SDS_P1;SDS_P2;PMS_P1;PMS_P2;Temp;Humidity;BMP_temperature;BMP_pressure;BME280_temperature;BME280_humidity;BME280_pressure;Samples;Min_cycle;Max_cycle;Signal;HPM_P1;HPM_P2
2024/01/18 00:01:36;;;;;;;27.52;5.85;;;-0.10;99.90;;;;;;5021936;28;20067;-73
2024/01/18 00:04:02;;;;;;;11.60;5.82;;;-0.20;99.90;;;;;;5013824;28;20410;-71
2024/01/18 00:06:31;;;;;;;14.18;5.03;;;-0.20;99.90;;;;;;5021967;28;20037;-73
2024/01/18 00:08:57;;;;;;;13.52;5.32;;;-0.20;99.90;;;;;;5018839;28;20038;-71
2024/01/18 00:11:22;;;;;;;10.57;4.82;;;-0.30;99.90;;;;;;5012104;28;20745;-71
2024/01/18 00:13:48;;;;;;;9.68;4.60;;;-0.30;99.90;;;;;;5016162;28;20048;-72
2024/01/18 00:16:14;;;;;;;8.80;3.92;;;-0.30;99.90;;;;;;5019088;28;20548;-72
2024/01/18 00:18:39;;;;;;;13.98;4.85;;;-0.30;99.90;;;;;;5021602;28;20409;-72
2024/01/18 00:21:05;;;;;;;10.25;4.95;;;-0.30;99.90;;;;;;5017542;28;20037;-72
2024/01/18 00:23:30;;;;;;;15.63;6.03;;;-0.40;99.90;;;;;;5020455;28;20042;-72
2024/01/18 00:25:56;;;;;;;13.25;5.00;;;-0.40;99.90;;;;;;5021473;28;20040;-72
2024/01/18 00:28:22;;;;;;;11.98;5.30;;;-0.40;99.90;;;;;;5015165;28;20049;-71
2024/01/18 00:30:47;;;;;;;13.02;5.18;;;-0.50;99.90;;;;;;5015685;28;20061;-72
2024/01/18 00:33:13;;;;;;;12.63;4.55;;;-0.50;99.90;;;;;;5018670;28;20043;-71
2024/01/18 00:35:38;;;;;;;19.52;5.88;;;-0.50;99.90;;;;;;5015729;28;20051;-73
2024/01/18 00:38:04;;;;;;;16.05;5.25;;;-0.50;99.90;;;;;;5023737;28;20057;-72
2024/01/18 00:40:29;;;;;;;11.93;5.18;;;-0.50;99.90;;;;;;5019722;28;20533;-72
2024/01/18 00:42:55;;;;;;;11.75;4.50;;;-0.50;99.90;;;;;;5016593;28;20037;-72
2024/01/18 00:45:21;;;;;;;14.73;4.50;;;-0.50;99.90;;;;;;5016354;28;20026;-71
2024/01/18 00:47:46;;;;;;;12.63;4.40;;;-0.40;99.90;;;;;;5012699;28;20708;-71
2024/01/18 00:50:12;;;;;;;13.10;4.85;;;-0.50;99.90;;;;;;5016616;28;20071;-72
2024/01/18 00:52:38;;;;;;;10.40;5.15;;;-0.40;99.90;;;;;;5015499;28;20033;-73
2024/01/18 00:55:04;;;;;;;11.20;4.55;;;-0.50;99.90;;;;;;5015862;28;20033;-72
2024/01/18 00:57:29;;;;;;;10.40;4.03;;;-0.50;99.90;;;;;;5020225;28;20040;-72
2024/01/18 00:59:55;;;;;;;10.43;4.63;;;-0.50;99.90;;;;;;5019326;28;20405;-72
2024/01/18 01:02:21;;;;;;;12.38;4.03;;;-0.50;99.90;;;;;;5014059;28;20038;-72
2024/01/18 01:04:46;;;;;;;7.38;3.38;;;-0.50;99.90;;;;;;5013346;28;20108;-72
2024/01/18 01:07:12;;;;;;;6.38;3.63;;;-0.60;99.90;;;;;;5023079;28;20041;-72
2024/01/18 01:09:38;;;;;;;10.02;3.97;;;-0.50;99.90;;;;;;5014431;28;20032;-72
2024/01/18 01:12:03;;;;;;;10.73;3.72;;;-0.60;99.90;;;;;;5014847;28;20029;-72
2024/01/18 01:14:29;;;;;;;10.95;3.58;;;-0.60;99.90;;;;;;5010339;28;20479;-73
2024/01/18 01:16:55;;;;;;;6.72;2.80;;;-0.70;99.90;;;;;;5008161;28;20041;-72
2024/01/18 01:19:21;;;;;;;9.30;3.60;;;-0.70;99.90;;;;;;5012966;28;20393;-72
2024/01/18 01:21:46;;;;;;;11.65;3.90;;;-0.70;99.90;;;;;;5004547;28;20033;-72
2024/01/18 01:24:12;;;;;;;11.43;4.13;;;-0.80;99.90;;;;;;5014702;28;20034;-72
2024/01/18 01:26:38;;;;;;;10.90;3.58;;;-0.80;99.90;;;;;;5018822;28;20229;-72
2024/01/18 01:29:04;;;;;;;9.57;3.53;;;-0.80;99.90;;;;;;5014942;28;20358;-72
2024/01/18 01:31:30;;;;;;;8.63;3.67;;;-0.80;99.90;;;;;;5013925;28;20521;-72
2024/01/18 01:33:56;;;;;;;12.85;3.67;;;-0.90;99.90;;;;;;5011250;28;20030;-72
2024/01/18 01:36:21;;;;;;;11.27;3.70;;;-0.90;99.90;;;;;;5008438;28;20038;-72
2024/01/18 01:38:47;;;;;;;7.72;3.40;;;-0.90;99.90;;;;;;5007783;28;20042;-71
2024/01/18 01:41:13;;;;;;;14.65;4.28;;;-0.90;99.90;;;;;;5008537;28;20058;-72
2024/01/18 01:44:01;;;;;;;7.30;3.00;;;-1.00;99.90;;;;;;5008399;28;20045;-72
2024/01/18 01:46:28;;;;;;;11.35;3.88;;;-1.00;99.90;;;;;;5009152;28;20030;-72
2024/01/18 01:49:00;;;;;;;9.80;3.95;;;-1.00;99.90;;;;;;5003773;28;20041;-72
2024/01/18 01:51:30;;;;;;;7.07;3.20;;;-1.00;99.90;;;;;;5009992;28;20076;-72
2024/01/18 01:53:57;;;;;;;11.63;3.53;;;-1.10;99.90;;;;;;5006964;28;20486;-71
2024/01/18 01:56:23;;;;;;;14.55;3.42;;;-1.10;99.90;;;;;;5012552;28;20040;-72
2024/01/18 01:58:50;;;;;;;6.95;3.45;;;-1.10;99.90;;;;;;5012285;28;20591;-72
2024/01/18 02:01:16;;;;;;;9.63;2.90;;;-1.10;99.90;;;;;;5010506;28;20588;-72
2024/01/18 02:03:41;;;;;;;12.15;3.90;;;-1.20;99.90;;;;;;5008566;28;20113;-73
2024/01/18 02:06:08;;;;;;;7.50;3.35;;;-1.20;99.90;;;;;;5009201;28;20563;-72
2024/01/18 02:08:33;;;;;;;9.23;3.35;;;-1.20;99.90;;;;;;5016374;28;20038;-72
2024/01/18 02:10:59;;;;;;;10.50;3.55;;;-1.20;99.90;;;;;;5007461;28;20041;-72
2024/01/18 02:13:25;;;;;;;8.77;4.22;;;-1.30;99.90;;;;;;5012122;28;20037;-72
2024/01/18 02:15:51;;;;;;;8.68;3.22;;;-1.30;99.90;;;;;;5012387;28;20041;-71
2024/01/18 02:18:17;;;;;;;8.45;3.75;;;-1.30;99.90;;;;;;5013532;28;20029;-72
2024/01/18 02:20:42;;;;;;;7.97;3.13;;;-1.20;99.90;;;;;;5011280;28;20128;-72
2024/01/18 02:23:10;;;;;;;8.93;3.85;;;-1.20;99.90;;;;;;5021013;28;20041;-73
2024/01/18 02:25:36;;;;;;;12.10;3.55;;;-1.20;99.90;;;;;;5016189;28;20049;-73
2024/01/18 02:28:02;;;;;;;6.85;2.60;;;-1.20;99.90;;;;;;5021983;28;20040;-73
2024/01/18 02:30:28;;;;;;;6.22;2.75;;;-1.20;99.90;;;;;;5018734;28;20037;-73
2024/01/18 02:32:53;;;;;;;7.53;2.67;;;-1.20;99.90;;;;;;5020664;28;20029;-73
2024/01/18 02:35:20;;;;;;;8.57;3.30;;;-1.20;99.90;;;;;;5019175;28;20037;-73
2024/01/18 02:37:46;;;;;;;9.02;3.92;;;-1.20;99.90;;;;;;5019443;28;20041;-73
2024/01/18 02:40:11;;;;;;;6.88;3.17;;;-1.20;99.90;;;;;;5019111;28;20030;-72
2024/01/18 02:42:37;;;;;;;11.77;3.72;;;-1.10;99.90;;;;;;5019729;28;20091;-73
2024/01/18 02:45:04;;;;;;;9.48;2.92;;;-1.20;99.90;;;;;;5020670;28;20037;-73
2024/01/18 02:47:30;;;;;;;5.70;2.47;;;-1.10;99.90;;;;;;5016650;28;20393;-75
2024/01/18 02:49:56;;;;;;;13.75;4.30;;;-1.10;99.90;;;;;;5013804;28;20047;-73
2024/01/18 02:52:22;;;;;;;10.65;2.60;;;-1.10;99.90;;;;;;5016884;28;20074;-73
2024/01/18 02:54:47;;;;;;;5.82;2.80;;;-1.20;99.90;;;;;;5015554;28;20041;-73
2024/01/18 02:57:13;;;;;;;6.82;3.10;;;-1.20;99.90;;;;;;5010344;28;20026;-71
2024/01/18 02:59:38;;;;;;;9.93;3.08;;;-1.20;99.90;;;;;;5026992;28;20409;-70
2024/01/18 03:02:04;;;;;;;6.20;2.80;;;-1.20;99.90;;;;;;5012325;28;20106;-73
2024/01/18 03:04:31;;;;;;;6.03;3.15;;;-1.20;99.90;;;;;;5010412;28;20493;-73
2024/01/18 03:06:57;;;;;;;5.45;2.65;;;-1.20;99.90;;;;;;5017331;28;20528;-73
2024/01/18 03:09:22;;;;;;;12.40;3.28;;;-1.30;99.90;;;;;;5017090;28;20037;-73
2024/01/18 03:11:48;;;;;;;5.40;2.40;;;-1.30;99.90;;;;;;5022306;28;20588;-73
2024/01/18 03:14:13;;;;;;;9.95;2.70;;;-1.30;99.90;;;;;;5022497;28;20052;-71
2024/01/18 03:16:42;;;;;;;11.80;2.72;;;-1.30;99.90;;;;;;5013889;28;20053;-73
2024/01/18 03:19:10;;;;;;;7.15;2.50;;;-1.30;99.90;;;;;;5018953;28;20030;-73
2024/01/18 03:21:36;;;;;;;8.07;2.30;;;-1.30;99.90;;;;;;5011789;28;20046;-74
2024/01/18 03:24:01;;;;;;;6.15;2.60;;;-1.30;99.90;;;;;;5014408;28;20398;-73
2024/01/18 03:26:27;;;;;;;5.82;2.63;;;-1.40;99.90;;;;;;5022174;28;20037;-73
2024/01/18 03:28:52;;;;;;;7.65;2.58;;;-1.40;99.90;;;;;;5027101;28;20029;-73
2024/01/18 03:31:18;;;;;;;8.27;2.42;;;-1.40;99.90;;;;;;5020995;28;20758;-73
2024/01/18 03:33:43;;;;;;;5.78;2.40;;;-1.40;99.90;;;;;;5021421;28;20125;-72
2024/01/18 03:36:10;;;;;;;9.45;3.10;;;-1.40;99.90;;;;;;5012048;28;20041;-72
2024/01/18 03:38:36;;;;;;;7.28;2.03;;;-1.50;99.90;;;;;;5018926;28;20490;-73
2024/01/18 03:41:01;;;;;;;10.20;2.42;;;-1.50;99.90;;;;;;5025299;28;20045;-72
2024/01/18 03:43:27;;;;;;;10.13;2.75;;;-1.60;99.90;;;;;;5025866;28;20034;-73
2024/01/18 03:45:52;;;;;;;7.65;2.13;;;-1.60;99.90;;;;;;5026685;28;20030;-72
2024/01/18 03:48:18;;;;;;;5.30;1.98;;;-1.60;99.90;;;;;;5019022;28;20132;-72
2024/01/18 03:50:44;;;;;;;9.57;2.40;;;-1.60;99.90;;;;;;5013158;28;20046;-72
2024/01/18 03:53:09;;;;;;;4.15;1.92;;;-1.60;99.90;;;;;;5015790;28;20108;-74
2024/01/18 03:55:35;;;;;;;5.97;1.60;;;-1.50;99.90;;;;;;5014615;28;20092;-73
2024/01/18 03:58:00;;;;;;;3.38;1.38;;;-1.50;99.90;;;;;;5024705;28;20060;-73
2024/01/18 04:00:26;;;;;;;4.25;1.30;;;-1.50;99.90;;;;;;5025506;28;20044;-73
2024/01/18 04:02:52;;;;;;;8.00;1.75;;;-1.40;99.90;;;;;;5024565;28;20842;-73
2024/01/18 04:05:18;;;;;;;2.90;1.00;;;-1.40;99.90;;;;;;5026150;28;20045;-73
2024/01/18 04:07:43;;;;;;;3.85;1.23;;;-1.40;99.90;;;;;;5021348;28;20041;-73
2024/01/18 04:10:10;;;;;;;3.97;1.55;;;-1.40;99.90;;;;;;5013323;28;20112;-73
2024/01/18 04:12:36;;;;;;;10.35;2.20;;;-1.40;99.90;;;;;;5019419;28;20029;-73
2024/01/18 04:15:02;;;;;;;6.05;1.27;;;-1.40;99.90;;;;;;5020412;28;20053;-73
2024/01/18 04:17:28;;;;;;;6.10;1.35;;;-1.50;99.90;;;;;;5016428;28;20030;-76
2024/01/18 04:19:53;;;;;;;4.63;1.58;;;-1.50;99.90;;;;;;5025449;28;20033;-73
2024/01/18 04:22:19;;;;;;;5.20;1.70;;;-1.50;99.90;;;;;;5020607;28;20115;-73
2024/01/18 04:24:45;;;;;;;4.32;1.30;;;-1.60;99.90;;;;;;5024579;28;20497;-73
2024/01/18 04:27:11;;;;;;;3.97;1.17;;;-1.60;99.90;;;;;;5027505;28;20042;-73
2024/01/18 04:29:36;;;;;;;3.20;1.05;;;-1.60;99.90;;;;;;5021383;28;20508;-75
2024/01/18 04:32:02;;;;;;;4.25;1.05;;;-1.70;99.90;;;;;;5028793;28;20049;-73
2024/01/18 04:34:28;;;;;;;3.38;1.30;;;-1.70;99.90;;;;;;5020914;28;20030;-73
2024/01/18 04:36:53;;;;;;;3.78;1.35;;;-1.70;99.90;;;;;;5014972;28;20153;-73
2024/01/18 04:39:19;;;;;;;5.45;0.93;;;-1.70;99.90;;;;;;5024547;28;20076;-72
2024/01/18 04:41:44;;;;;;;2.97;0.95;;;-1.70;99.90;;;;;;5015392;28;20042;-73
2024/01/18 04:44:10;;;;;;;3.10;0.45;;;-1.70;99.90;;;;;;5018428;28;20033;-71
2024/01/18 04:46:36;;;;;;;2.20;0.68;;;-1.70;99.90;;;;;;5006818;28;20057;-73
2024/01/18 04:49:02;;;;;;;4.97;1.10;;;-1.70;99.90;;;;;;5029852;28;20496;-73
2024/01/18 04:51:28;;;;;;;3.22;1.35;;;-1.70;99.90;;;;;;5025095;28;20545;-72
2024/01/18 04:53:53;;;;;;;2.25;0.50;;;-1.80;99.90;;;;;;5024477;28;20061;-73
2024/01/18 04:56:20;;;;;;;2.22;0.60;;;-1.80;99.90;;;;;;5020240;28;20038;-75
2024/01/18 04:58:46;;;;;;;4.90;0.80;;;-1.80;99.90;;;;;;5009219;28;20080;-73
2024/01/18 05:01:11;;;;;;;0.95;0.60;;;-1.80;99.90;;;;;;5011443;28;20034;-73
2024/01/18 05:03:37;;;;;;;3.40;0.70;;;-1.90;99.90;;;;;;5013973;28;20033;-76
2024/01/18 05:06:04;;;;;;;5.22;0.82;;;-1.90;99.90;;;;;;5025553;28;20556;-73
2024/01/18 05:08:29;;;;;;;1.70;0.50;;;-1.90;99.90;;;;;;5026160;28;20025;-73
2024/01/18 05:10:55;;;;;;;2.95;1.02;;;-1.90;99.90;;;;;;5015143;28;20394;-73
2024/01/18 05:13:21;;;;;;;2.55;0.75;;;-1.90;99.90;;;;;;5009195;28;20108;-73
2024/01/18 05:15:47;;;;;;;3.67;1.00;;;-1.90;99.90;;;;;;5018990;28;20485;-73
2024/01/18 05:18:14;;;;;;;1.75;0.50;;;-1.90;99.90;;;;;;5030979;28;20039;-73
2024/01/18 05:20:39;;;;;;;1.50;0.55;;;-1.90;99.90;;;;;;5026272;28;20132;-73
2024/01/18 05:23:06;;;;;;;1.55;0.63;;;-2.00;99.90;;;;;;5023363;28;20176;-72
2024/01/18 05:25:32;;;;;;;2.00;0.50;;;-2.00;99.90;;;;;;5017626;28;20114;-73
2024/01/18 05:27:59;;;;;;;2.88;0.60;;;-2.00;99.90;;;;;;5013783;28;20040;-73
2024/01/18 05:30:24;;;;;;;6.03;0.68;;;-2.00;99.90;;;;;;5013764;28;20041;-74
2024/01/18 05:32:50;;;;;;;17.52;2.80;;;-2.00;99.90;;;;;;5019404;28;20687;-71
2024/01/18 05:35:16;;;;;;;1.75;0.50;;;-2.00;99.90;;;;;;5017823;28;20041;-73
2024/01/18 05:37:41;;;;;;;3.05;1.58;;;-2.10;99.90;;;;;;5023358;28;20041;-73
2024/01/18 05:40:08;;;;;;;2.33;0.90;;;-2.10;99.90;;;;;;5017922;28;20029;-73
2024/01/18 05:42:34;;;;;;;2.80;0.52;;;-2.00;99.90;;;;;;5028808;28;20125;-73
2024/01/18 05:45:00;;;;;;;4.18;0.73;;;-2.00;99.90;;;;;;5018631;28;20092;-72
2024/01/18 05:47:25;;;;;;;0.88;0.40;;;-2.00;99.90;;;;;;5025197;28;20100;-71
2024/01/18 05:49:51;;;;;;;6.82;0.65;;;-2.00;99.90;;;;;;5006726;28;20048;-73
2024/01/18 05:52:17;;;;;;;1.67;1.23;;;-2.00;99.90;;;;;;5015855;28;20038;-71
2024/01/18 05:54:42;;;;;;;3.35;0.70;;;-2.00;99.90;;;;;;5017495;28;20075;-71
2024/01/18 05:57:08;;;;;;;2.17;0.75;;;-2.00;99.90;;;;;;5013773;28;20032;-73
2024/01/18 05:59:34;;;;;;;1.58;0.70;;;-2.00;99.90;;;;;;5019180;28;20022;-74
2024/01/18 06:02:00;;;;;;;1.75;0.50;;;-1.90;99.90;;;;;;5018389;28;20029;-73
2024/01/18 06:04:25;;;;;;;1.95;0.75;;;-1.90;99.90;;;;;;5020206;28;20037;-73
2024/01/18 06:06:52;;;;;;;1.40;0.80;;;-2.00;99.90;;;;;;5018239;28;20034;-72
2024/01/18 06:09:18;;;;;;;1.75;0.57;;;-2.00;99.90;;;;;;5020399;28;20056;-73
2024/01/18 06:11:48;;;;;;;2.83;0.70;;;-2.00;99.90;;;;;;5017600;28;20076;-70
2024/01/18 06:14:15;;;;;;;1.45;0.82;;;-2.00;99.90;;;;;;5017808;28;20549;-73
2024/01/18 06:16:41;;;;;;;1.02;0.50;;;-2.00;99.90;;;;;;5018462;28;20049;-72
2024/01/18 06:19:06;;;;;;;4.88;0.63;;;-2.00;99.90;;;;;;5018120;28;20041;-73
2024/01/18 06:21:32;;;;;;;1.58;0.50;;;-2.00;99.90;;;;;;5018749;28;20029;-73
2024/01/18 06:23:58;;;;;;;3.42;0.80;;;-2.00;99.90;;;;;;5018367;28;20516;-73
2024/01/18 06:26:23;;;;;;;2.58;0.82;;;-2.00;99.90;;;;;;5020366;28;20045;-73
2024/01/18 06:28:49;;;;;;;4.35;0.82;;;-2.00;99.90;;;;;;5018907;28;20441;-72
2024/01/18 06:31:15;;;;;;;2.95;1.00;;;-2.00;99.90;;;;;;5017624;28;20041;-74
2024/01/18 06:33:41;;;;;;;2.75;0.57;;;-2.00;99.90;;;;;;5015442;28;20030;-72
2024/01/18 06:36:11;;;;;;;2.65;0.57;;;-2.00;99.90;;;;;;5020038;28;20069;-73
2024/01/18 06:38:36;;;;;;;1.05;0.47;;;-2.00;99.90;;;;;;5014520;28;20054;-73
2024/01/18 06:41:02;;;;;;;3.65;0.65;;;-2.00;99.90;;;;;;5017055;28;20490;-71
2024/01/18 06:43:28;;;;;;;0.93;0.43;;;-2.00;99.90;;;;;;5016698;28;20053;-72
2024/01/18 06:45:55;;;;;;;2.53;1.13;;;-2.00;99.90;;;;;;5018954;28;21254;-74
2024/01/18 06:48:22;;;;;;;1.00;0.40;;;-2.00;99.90;;;;;;5018137;28;20077;-71
2024/01/18 06:50:48;;;;;;;1.70;0.50;;;-2.00;99.90;;;;;;5016419;28;20049;-73
2024/01/18 06:53:13;;;;;;;1.40;0.68;;;-2.00;99.90;;;;;;5018526;28;20045;-73
2024/01/18 06:55:40;;;;;;;1.30;0.60;;;-2.00;99.90;;;;;;5016735;28;20045;-73
2024/01/18 06:58:05;;;;;;;0.85;0.50;;;-2.00;99.90;;;;;;5019919;28;20069;-73
2024/01/18 07:00:32;;;;;;;0.80;0.40;;;-2.00;99.90;;;;;;5022402;28;20057;-75
2024/01/18 07:02:58;;;;;;;0.57;0.20;;;-2.00;99.90;;;;;;5021656;28;20040;-73
2024/01/18 07:05:24;;;;;;;3.65;0.90;;;-2.00;99.90;;;;;;5022354;28;20037;-72
2024/01/18 07:07:50;;;;;;;1.42;0.80;;;-2.00;99.90;;;;;;5021059;28;20257;-73
2024/01/18 07:10:17;;;;;;;1.95;0.45;;;-2.10;99.90;;;;;;5024791;28;20128;-73
2024/01/18 07:12:45;;;;;;;3.67;0.75;;;-2.10;99.90;;;;;;5022541;28;20067;-73
2024/01/18 07:15:11;;;;;;;5.35;0.70;;;-2.10;99.90;;;;;;5024930;28;20042;-74
2024/01/18 07:17:37;;;;;;;2.00;0.60;;;-2.20;99.90;;;;;;5022771;28;20041;-74
2024/01/18 07:20:04;;;;;;;4.05;0.43;;;-2.20;99.90;;;;;;5020874;28;20068;-72
2024/01/18 07:22:30;;;;;;;3.65;0.70;;;-2.20;99.90;;;;;;5022269;28;20033;-74
2024/01/18 07:24:56;;;;;;;3.38;0.45;;;-2.20;99.90;;;;;;5021795;28;20288;-73
2024/01/18 07:27:22;;;;;;;1.00;0.57;;;-2.20;99.90;;;;;;5023978;28;20493;-72
2024/01/18 07:29:49;;;;;;;2.35;0.63;;;-2.30;99.90;;;;;;5018611;28;20041;-73
2024/01/18 07:32:15;;;;;;;2.42;0.45;;;-2.30;99.90;;;;;;5022927;28;20032;-73
2024/01/18 07:34:41;;;;;;;2.30;0.60;;;-2.30;99.90;;;;;;5020656;28;20077;-72
2024/01/18 07:37:08;;;;;;;4.30;0.60;;;-2.30;99.90;;;;;;5018816;28;20472;-71
2024/01/18 07:39:34;;;;;;;4.68;0.77;;;-2.30;99.90;;;;;;5021399;28;20044;-72
2024/01/18 07:42:00;;;;;;;2.08;0.70;;;-2.30;99.90;;;;;;5017065;28;20041;-73
2024/01/18 07:44:27;;;;;;;7.20;2.28;;;-2.40;99.90;;;;;;5021358;28;20037;-73
2024/01/18 07:46:53;;;;;;;1.77;0.93;;;-2.40;99.90;;;;;;5021984;28;20041;-73
2024/01/18 07:49:20;;;;;;;4.25;0.80;;;-2.40;99.90;;;;;;5020962;28;20067;-73
2024/01/18 07:51:46;;;;;;;8.05;1.55;;;-2.40;99.90;;;;;;5019630;28;20703;-71
2024/01/18 07:54:11;;;;;;;2.58;0.95;;;-2.40;99.90;;;;;;5021929;28;20057;-73
2024/01/18 07:56:37;;;;;;;3.30;1.10;;;-2.40;99.90;;;;;;5018807;28;20034;-72
2024/01/18 07:59:02;;;;;;;3.67;1.40;;;-2.40;99.90;;;;;;5019389;28;20409;-73
2024/01/18 08:01:28;;;;;;;2.65;0.80;;;-2.40;99.90;;;;;;5022429;28;20048;-75
2024/01/18 08:03:54;;;;;;;1.90;0.75;;;-2.40;99.90;;;;;;5022090;28;20567;-74
2024/01/18 08:06:19;;;;;;;4.95;1.10;;;-2.40;99.90;;;;;;5022435;28;20116;-73
2024/01/18 08:08:45;;;;;;;3.45;0.98;;;-2.40;99.90;;;;;;5018837;28;20052;-72
2024/01/18 08:11:12;;;;;;;4.70;1.55;;;-2.40;99.90;;;;;;5021139;28;20634;-72
2024/01/18 08:13:39;;;;;;;2.90;0.80;;;-2.30;99.90;;;;;;5020287;28;20030;-76
2024/01/18 08:16:04;;;;;;;1.92;1.05;;;-2.30;99.90;;;;;;5023251;28;20036;-72
2024/01/18 08:18:30;;;;;;;3.97;1.42;;;-2.30;99.90;;;;;;5020272;28;20041;-73
2024/01/18 08:20:55;;;;;;;2.80;0.90;;;-2.30;99.90;;;;;;5021418;28;20041;-72
2024/01/18 08:23:23;;;;;;;2.75;1.02;;;-2.20;99.90;;;;;;5018664;28;20072;-72
2024/01/18 08:25:49;;;;;;;11.07;1.92;;;-2.20;99.90;;;;;;5021172;28;20045;-73
2024/01/18 08:28:14;;;;;;;2.05;1.10;;;-2.20;99.90;;;;;;5021255;28;20484;-71
2024/01/18 08:30:40;;;;;;;12.50;1.40;;;-2.10;99.90;;;;;;5018837;28;20128;-72
2024/01/18 08:33:08;;;;;;;3.20;1.20;;;-2.10;99.90;;;;;;5019965;28;20037;-70
2024/01/18 08:35:34;;;;;;;3.67;0.88;;;-2.10;99.90;;;;;;5015630;28;20088;-72
2024/01/18 08:38:00;;;;;;;7.53;1.10;;;-2.10;99.90;;;;;;5019028;28;20067;-73
2024/01/18 08:40:25;;;;;;;3.58;1.40;;;-2.10;99.90;;;;;;5019130;28;20064;-73
2024/01/18 08:42:51;;;;;;;2.38;0.95;;;-2.10;99.90;;;;;;5019478;28;20033;-73
2024/01/18 08:45:18;;;;;;;3.25;1.38;;;-2.10;99.90;;;;;;5021211;28;20087;-72
2024/01/18 08:47:44;;;;;;;3.67;1.80;;;-2.10;99.90;;;;;;5016926;28;20033;-72
2024/01/18 08:50:10;;;;;;;2.95;1.58;;;-2.10;99.90;;;;;;5017703;28;20049;-71
2024/01/18 08:52:35;;;;;;;3.30;1.20;;;-2.00;99.90;;;;;;5017001;28;20121;-72
2024/01/18 08:55:02;;;;;;;5.35;1.88;;;-2.00;99.90;;;;;;5020401;28;20048;-73
2024/01/18 08:57:29;;;;;;;5.80;1.67;;;-1.90;99.90;;;;;;5019430;28;20033;-73
2024/01/18 08:59:55;;;;;;;5.38;1.90;;;-1.80;99.90;;;;;;5016930;28;20040;-73
2024/01/18 09:02:21;;;;;;;8.55;2.35;;;-1.70;99.90;;;;;;5020955;28;20390;-73
2024/01/18 09:04:46;;;;;;;3.58;1.30;;;-1.60;99.90;;;;;;5020478;28;20033;-73
2024/01/18 09:07:12;;;;;;;4.88;0.90;;;-1.60;99.90;;;;;;5020443;28;20025;-73
2024/01/18 09:09:37;;;;;;;8.13;1.30;;;-1.50;99.90;;;;;;5020348;28;20037;-73
2024/01/18 09:12:03;;;;;;;5.47;1.27;;;-1.40;99.90;;;;;;5020590;28;20030;-74
2024/01/18 09:14:29;;;;;;;3.30;1.17;;;-1.30;99.90;;;;;;5018653;28;20486;-75
2024/01/18 09:16:54;;;;;;;4.13;1.13;;;-1.30;99.90;;;;;;5019062;28;20743;-73
2024/01/18 09:19:20;;;;;;;5.47;1.05;;;-1.20;99.90;;;;;;5018624;28;20044;-73
2024/01/18 09:21:46;;;;;;;4.90;1.02;;;-1.10;99.90;;;;;;5019520;28;20033;-71
2024/01/18 09:24:13;;;;;;;8.88;1.08;;;-1.10;99.90;;;;;;5016936;28;20056;-73
2024/01/18 09:26:39;;;;;;;2.85;1.00;;;-1.00;99.90;;;;;;5021032;28;20466;-75
2024/01/18 09:29:05;;;;;;;3.17;0.82;;;-0.90;99.90;;;;;;5018767;28;20049;-73
2024/01/18 09:31:31;;;;;;;5.28;1.40;;;-0.90;99.90;;;;;;5021366;28;20049;-73
2024/01/18 09:33:57;;;;;;;2.80;1.20;;;-0.70;99.90;;;;;;5021404;28;20033;-74
2024/01/18 09:36:23;;;;;;;2.72;1.40;;;-0.60;99.90;;;;;;5021253;28;20041;-73
2024/01/18 09:38:48;;;;;;;2.83;1.77;;;-0.60;99.90;;;;;;5017792;28;20045;-73
2024/01/18 09:41:19;;;;;;;4.63;1.25;;;-0.40;99.90;;;;;;5019643;28;20041;-72
2024/01/18 09:43:45;;;;;;;;;;;-0.40;99.90;;;;;;5019564;28;20070;-73
2024/01/18 09:46:14;;;;;;;3.00;1.00;;;-0.30;99.90;;;;;;5019008;28;19921;-73
2024/01/18 09:48:41;;;;;;;3.25;0.90;;;-0.20;99.90;;;;;;5016678;28;20042;-73
2024/01/18 09:51:07;;;;;;;3.38;1.13;;;-0.10;99.90;;;;;;5018725;28;20048;-72
2024/01/18 09:53:33;;;;;;;2.20;0.55;;;0.10;99.90;;;;;;5019878;28;20113;-73
2024/01/18 09:56:05;;;;;;;2.58;0.93;;;0.20;99.90;;;;;;5017513;28;20041;-73
2024/01/18 09:58:31;;;;;;;2.00;0.90;;;0.30;99.90;;;;;;5018688;28;20568;-72
2024/01/18 10:00:59;;;;;;;3.05;0.93;;;0.40;99.90;;;;;;5019602;28;20033;-72
2024/01/18 10:03:25;;;;;;;2.45;0.80;;;0.50;99.90;;;;;;5018450;28;20401;-73
2024/01/18 11:14:52;;;;;;;5.20;0.82;;;3.00;99.90;;;;;;5016157;28;20049;-72
2024/01/18 11:17:19;;;;;;;0.75;0.15;;;2.90;99.90;;;;;;5018284;28;20135;-73
2024/01/18 11:19:46;;;;;;;2.80;0.20;;;2.80;99.90;;;;;;5019207;28;20109;-72
2024/01/18 11:22:23;;;;;;;2.38;0.10;;;2.70;99.90;;;;;;5028308;28;20037;-72
2024/01/18 11:24:49;;;;;;;0.90;0.10;;;2.80;99.90;;;;;;5022190;28;20033;-72
2024/01/18 11:27:22;;;;;;;1.92;0.17;;;2.80;99.90;;;;;;5033955;28;20136;-72
2024/01/18 11:29:49;;;;;;;4.18;0.50;;;2.80;99.90;;;;;;5031059;28;20040;-72
2024/01/18 11:32:17;;;;;;;6.63;1.05;;;3.00;99.90;;;;;;5028469;28;20035;-72
2024/01/18 11:34:44;;;;;;;1.35;0.20;;;3.00;99.90;;;;;;5033113;28;20045;-73
2024/01/18 11:37:14;;;;;;;1.05;0.20;;;3.00;99.90;;;;;;5030548;28;20034;-72
2024/01/18 11:40:00;;;;;;;0.47;0.20;;;2.90;99.90;;;;;;5030445;28;20037;-73
2024/01/18 11:42:30;;;;;;;1.52;0.20;;;2.70;99.90;;;;;;5029742;28;20038;-72
2024/01/18 11:44:57;;;;;;;0.47;0.20;;;2.50;99.90;;;;;;5027012;28;20037;-72
2024/01/18 11:47:23;;;;;;;1.40;0.10;;;2.30;99.90;;;;;;5030230;28;20516;-72
2024/01/18 11:49:49;;;;;;;1.17;0.10;;;2.20;99.90;;;;;;5021961;28;20037;-72
2024/01/18 11:52:15;;;;;;;0.55;0.10;;;2.00;99.90;;;;;;5031868;28;20690;-72
2024/01/18 11:54:43;;;;;;;6.25;0.93;;;1.90;99.90;;;;;;5026600;28;20382;-72
2024/01/18 11:57:14;;;;;;;1.65;0.30;;;1.90;99.90;;;;;;5026844;28;20136;-73
2024/01/18 11:59:41;;;;;;;3.90;0.32;;;1.90;99.90;;;;;;5020000;28;20041;-72
2024/01/18 12:02:07;;;;;;;3.78;0.30;;;2.00;99.90;;;;;;5023828;28;20029;-72
2024/01/18 12:04:32;;;;;;;1.73;0.20;;;2.10;99.90;;;;;;5022711;28;20044;-72
2024/01/18 12:06:58;;;;;;;2.17;0.70;;;2.10;99.90;;;;;;5029690;28;20032;-73
2024/01/18 12:09:27;;;;;;;1.10;0.45;;;2.10;99.90;;;;;;5022038;28;20068;-72
2024/01/18 12:11:55;;;;;;;5.05;0.20;;;2.20;99.90;;;;;;5024587;28;20076;-72
2024/01/18 12:14:21;;;;;;;3.15;0.52;;;2.20;99.90;;;;;;5024773;28;20120;-74
2024/01/18 12:16:46;;;;;;;0.75;0.20;;;2.20;99.90;;;;;;5030131;28;20051;-72
2024/01/18 12:19:12;;;;;;;4.97;0.38;;;2.30;99.90;;;;;;5025459;28;20037;-71
2024/01/18 12:21:38;;;;;;;1.73;0.40;;;2.20;99.90;;;;;;5025930;28;20061;-74
2024/01/18 12:24:04;;;;;;;3.63;0.40;;;2.20;99.90;;;;;;5024255;28;20037;-73
2024/01/18 12:26:30;;;;;;;3.05;0.47;;;2.30;99.90;;;;;;5023855;28;20124;-74
2024/01/18 12:28:56;;;;;;;1.35;0.65;;;2.30;99.90;;;;;;5021364;28;20029;-72
2024/01/18 12:31:22;;;;;;;0.25;0.15;;;2.30;99.90;;;;;;5027064;28;20037;-72
2024/01/18 12:33:48;;;;;;;1.95;0.70;;;2.30;99.90;;;;;;5023803;28;20056;-72
2024/01/18 12:36:13;;;;;;;0.52;0.20;;;2.40;99.90;;;;;;5028408;28;20052;-72
2024/01/18 12:38:39;;;;;;;1.88;0.10;;;2.50;99.90;;;;;;5029200;28;20037;-76
2024/01/18 12:41:05;;;;;;;4.05;0.20;;;2.50;99.90;;;;;;5022218;28;20413;-73
2024/01/18 12:43:31;;;;;;;0.90;0.10;;;2.70;99.90;;;;;;5027917;28;20112;-72
2024/01/18 12:45:57;;;;;;;1.25;0.20;;;2.80;99.90;;;;;;5026746;28;20671;-73
2024/01/18 12:48:23;;;;;;;2.10;0.20;;;2.90;99.90;;;;;;5022249;28;20136;-74
2024/01/18 12:50:50;;;;;;;0.85;0.10;;;2.90;99.90;;;;;;5023914;28;20183;-73
2024/01/18 12:53:15;;;;;;;1.02;0.00;;;2.90;99.90;;;;;;5031118;28;20032;-72
2024/01/18 12:55:41;;;;;;;0.00;0.00;;;2.90;99.90;;;;;;5023548;28;20044;-73
2024/01/18 12:58:12;;;;;;;0.75;0.00;;;2.70;99.90;;;;;;5029034;28;20026;-72
2024/01/18 13:00:38;;;;;;;;;;;2.70;99.90;;;;;;5031286;28;20029;-75
2024/01/18 13:03:15;;;;;;;1.75;0.15;;;2.60;99.90;;;;;;5025104;28;20262;-78
2024/01/18 13:05:45;;;;;;;0.63;0.17;;;2.50;99.90;;;;;;5024506;28;20040;-74
2024/01/18 13:08:10;;;;;;;1.00;0.10;;;2.50;99.90;;;;;;5024944;28;20033;-73
2024/01/18 13:10:36;;;;;;;1.05;0.13;;;2.40;99.90;;;;;;5023056;28;20037;-73
2024/01/18 13:13:06;;;;;;;1.83;0.20;;;2.40;99.90;;;;;;4988000;28;1039454;-72
2024/01/18 13:15:32;;;;;;;0.35;0.10;;;2.30;99.90;;;;;;5030775;28;20318;-74
2024/01/18 13:17:57;;;;;;;3.13;0.10;;;2.30;99.90;;;;;;5024432;28;20481;-71
2024/01/18 13:20:23;;;;;;;1.52;0.10;;;2.20;99.90;;;;;;5023452;28;20033;-72
2024/01/18 13:22:49;;;;;;;0.77;0.00;;;2.20;99.90;;;;;;5032433;28;20192;-71
2024/01/18 13:25:14;;;;;;;0.52;0.00;;;2.20;99.90;;;;;;5027295;28;20042;-73
2024/01/18 13:27:42;;;;;;;2.88;0.10;;;2.30;99.90;;;;;;5021057;28;20040;-74
2024/01/18 13:30:09;;;;;;;1.00;0.32;;;2.30;99.90;;;;;;5028565;28;20037;-75
2024/01/18 13:32:35;;;;;;;1.10;0.00;;;2.30;99.90;;;;;;5025989;28;20133;-74
2024/01/18 13:35:00;;;;;;;0.20;0.08;;;2.40;99.90;;;;;;5021962;28;20467;-72
2024/01/18 13:37:26;;;;;;;0.00;0.00;;;2.40;99.90;;;;;;5031373;28;20033;-74
2024/01/18 13:39:51;;;;;;;0.75;0.05;;;2.40;99.90;;;;;;5023274;28;20038;-73
2024/01/18 13:42:17;;;;;;;0.00;0.00;;;2.40;99.90;;;;;;5031196;28;20076;-72
2024/01/18 13:44:42;;;;;;;1.17;0.10;;;2.40;99.90;;;;;;5026354;28;20564;-72
2024/01/18 13:47:08;;;;;;;0.20;0.00;;;2.40;99.90;;;;;;5026996;28;20049;-74
2024/01/18 13:49:34;;;;;;;0.20;0.00;;;2.40;99.90;;;;;;5019189;28;20056;-72
2024/01/18 13:51:59;;;;;;;0.75;0.10;;;2.40;99.90;;;;;;5016913;28;20030;-74